Terminal Aerodrome Forecast
Issued by NWS Denver/Boulder, CO

Home | Current Version | Previous Version | Text Only | Print | Product List | Glossary On
Versions: 1 2 3 4 5 6 7 8 9 10 11 12 13 14 15 16 17 18 19 20 21 22 23 24 25 26 27 28 29 30 31 32 33 34 35 36 37 38 39 40 41 42 43 44 45 46 47 48 49 50
000
FTUS45 KBOU 061725
TAFDEN
TAF
KDEN 061725Z 0618/0724 15015G25KT P6SM SCT050 BKN100
     FM062200 12014KT P6SM VCSH SCT025 OVC050
     FM070200 10012KT 2SM -SN BR SCT005 OVC015
     FM070500 08008KT 3/4SM -SN BR SCT003 OVC010
     FM070800 03007KT 1/2SM SN FZFG SCT005 OVC008
     FM071700 01012KT 3SM -SN BKN008 BKN030
     FM072000 02010KT P6SM VCSH SCT008 BKN030=

USA.gov is the U.S. government's official web portal to all federal, state and local government web resources and services.